createdAt,value
2018-02-05T00:00:09.466Z,1020.27
2018-02-05T00:00:35.580Z,1020.24
2018-02-05T00:01:01.683Z,1020.22
2018-02-05T00:01:27.783Z,1020.24
2018-02-05T00:01:53.884Z,1020.21
2018-02-05T00:02:19.997Z,1020.16
2018-02-05T00:02:46.114Z,1020.14
2018-02-05T00:03:12.215Z,1020.15
2018-02-05T00:03:38.317Z,1020.16
2018-02-05T00:04:04.424Z,1020.1
2018-02-05T00:04:30.514Z,1020.15
2018-02-05T00:04:56.640Z,1020.16
2018-02-05T00:05:22.734Z,1020.19
2018-02-05T00:05:48.833Z,1020.16
2018-02-05T00:06:14.933Z,1020.2
2018-02-05T00:06:41.037Z,1020.17
2018-02-05T00:07:07.134Z,1020.19
2018-02-05T00:07:33.228Z,1020.19
2018-02-05T00:07:59.365Z,1020.17
2018-02-05T00:08:25.466Z,1020.18
2018-02-05T00:08:51.856Z,1020.15
2018-02-05T00:09:17.959Z,1020.2
2018-02-05T00:09:44.067Z,1020.17
2018-02-05T00:10:10.158Z,1020.13
2018-02-05T00:10:36.256Z,1020.18
2018-02-05T00:11:02.354Z,1020.16
2018-02-05T00:11:28.456Z,1020.21
2018-02-05T00:11:54.556Z,1020.23
2018-02-05T00:12:20.657Z,1020.21
2018-02-05T00:12:46.785Z,1020.19
2018-02-05T00:13:12.885Z,1020.16
2018-02-05T00:13:38.981Z,1020.15
2018-02-05T00:14:05.085Z,1020.13
2018-02-05T00:14:31.187Z,1020.16
2018-02-05T00:14:57.281Z,1020.17
2018-02-05T00:15:23.382Z,1020.2
2018-02-05T00:15:49.488Z,1020.23
2018-02-05T00:16:15.584Z,1020.25
2018-02-05T00:16:41.682Z,1020.25
2018-02-05T00:17:07.855Z,1020.27
2018-02-05T00:17:33.990Z,1020.31
2018-02-05T00:18:00.092Z,1020.3
2018-02-05T00:18:26.207Z,1020.36
2018-02-05T00:18:52.310Z,1020.32
2018-02-05T00:19:18.410Z,1020.32
2018-02-05T00:19:44.534Z,1020.31
2018-02-05T00:20:10.664Z,1020.3
2018-02-05T00:20:36.735Z,1020.31
2018-02-05T00:21:02.832Z,1020.32
2018-02-05T00:21:28.983Z,1020.34
2018-02-05T00:21:55.069Z,1020.35
2018-02-05T00:22:21.165Z,1020.35
2018-02-05T00:22:47.263Z,1020.33
2018-02-05T00:23:13.368Z,1020.34
2018-02-05T00:23:39.471Z,1020.32
2018-02-05T00:24:05.565Z,1020.35
2018-02-05T00:24:31.667Z,1020.35
2018-02-05T00:24:57.763Z,1020.34
2018-02-05T00:25:23.858Z,1020.3
2018-02-05T00:25:49.955Z,1020.31
2018-02-05T00:26:16.056Z,1020.35
2018-02-05T00:26:42.151Z,1020.26
2018-02-05T00:27:08.254Z,1020.25
2018-02-05T00:27:34.359Z,1020.3
2018-02-05T00:28:00.455Z,1020.3
2018-02-05T00:28:26.556Z,1020.29
2018-02-05T00:28:52.652Z,1020.27
2018-02-05T00:29:18.754Z,1020.32
2018-02-05T00:29:44.852Z,1020.29
2018-02-05T00:30:10.951Z,1020.28
2018-02-05T00:30:37.049Z,1020.25
2018-02-05T00:31:03.151Z,1020.27
2018-02-05T00:31:29.247Z,1020.28
2018-02-05T00:31:55.345Z,1020.29
2018-02-05T00:32:21.517Z,1020.32
2018-02-05T00:32:47.620Z,1020.29
2018-02-05T00:33:13.725Z,1020.28
2018-02-05T00:33:39.821Z,1020.31
2018-02-05T00:34:05.932Z,1020.3
2018-02-05T00:34:32.036Z,1020.32
2018-02-05T00:34:58.143Z,1020.33
2018-02-05T00:35:24.242Z,1020.35
2018-02-05T00:35:50.343Z,1020.32
2018-02-05T00:36:16.440Z,1020.32
2018-02-05T00:36:42.536Z,1020.34
2018-02-05T00:37:08.660Z,1020.35
2018-02-05T00:37:34.776Z,1020.33
2018-02-05T00:38:00.870Z,1020.35
2018-02-05T00:38:27.010Z,1020.34
2018-02-05T00:38:53.108Z,1020.3
2018-02-05T00:39:19.255Z,1020.3
2018-02-05T00:39:45.358Z,1020.31
2018-02-05T00:40:11.470Z,1020.28
2018-02-05T00:40:37.573Z,1020.35
2018-02-05T00:41:03.676Z,1020.31
2018-02-05T00:41:29.769Z,1020.31
2018-02-05T00:41:55.876Z,1020.32
2018-02-05T00:42:21.974Z,1020.32
2018-02-05T00:42:48.076Z,1020.34
2018-02-05T00:43:14.175Z,1020.32
2018-02-05T00:43:40.310Z,1020.3
2018-02-05T00:44:06.406Z,1020.34
2018-02-05T00:44:32.506Z,1020.31
2018-02-05T00:44:58.609Z,1020.36
2018-02-05T00:45:24.703Z,1020.32
2018-02-05T00:45:50.819Z,1020.28
2018-02-05T00:46:16.936Z,1020.31
2018-02-05T00:46:43.043Z,1020.33
2018-02-05T00:47:09.162Z,1020.34
2018-02-05T00:47:35.274Z,1020.35
2018-02-05T00:48:01.389Z,1020.34
2018-02-05T00:48:27.505Z,1020.34
2018-02-05T00:48:53.620Z,1020.37
2018-02-05T00:49:19.737Z,1020.34
2018-02-05T00:49:45.850Z,1020.37
2018-02-05T00:50:11.960Z,1020.33
2018-02-05T00:50:38.073Z,1020.37
2018-02-05T00:51:04.183Z,1020.35
2018-02-05T00:51:30.293Z,1020.34
2018-02-05T00:51:56.413Z,1020.34
2018-02-05T00:52:22.530Z,1020.4
2018-02-05T00:52:48.643Z,1020.37
2018-02-05T00:53:14.759Z,1020.38
2018-02-05T00:53:40.872Z,1020.37
2018-02-05T00:54:06.983Z,1020.38
2018-02-05T00:54:33.521Z,1020.38
2018-02-05T00:54:59.633Z,1020.38
2018-02-05T00:55:25.749Z,1020.37
2018-02-05T00:55:51.858Z,1020.36
2018-02-05T00:56:17.978Z,1020.37
2018-02-05T00:56:44.082Z,1020.42
2018-02-05T00:57:10.199Z,1020.41
2018-02-05T00:57:36.332Z,1020.43
2018-02-05T00:58:02.450Z,1020.42
2018-02-05T00:58:28.565Z,1020.4
2018-02-05T00:58:54.674Z,1020.35
2018-02-05T00:59:20.812Z,1020.42
2018-02-05T00:59:46.941Z,1020.42
2018-02-05T01:00:13.063Z,1020.41
2018-02-05T01:00:39.173Z,1020.36
2018-02-05T01:01:05.308Z,1020.37
2018-02-05T01:01:31.425Z,1020.37
2018-02-05T01:01:57.565Z,1020.38
2018-02-05T01:02:23.673Z,1020.37
2018-02-05T01:02:49.787Z,1020.34
2018-02-05T01:03:15.913Z,1020.37
2018-02-05T01:03:42.023Z,1020.33
2018-02-05T01:04:08.133Z,1020.36
2018-02-05T01:04:34.245Z,1020.31
2018-02-05T01:05:00.365Z,1020.35
2018-02-05T01:05:26.483Z,1020.34
2018-02-05T01:05:52.613Z,1020.34
2018-02-05T01:06:18.724Z,1020.28
2018-02-05T01:06:44.839Z,1020.32
2018-02-05T01:07:10.953Z,1020.28
2018-02-05T01:07:37.077Z,1020.31
2018-02-05T01:08:03.187Z,1020.28
2018-02-05T01:08:29.297Z,1020.29
2018-02-05T01:08:55.416Z,1020.3
2018-02-05T01:09:21.524Z,1020.32
2018-02-05T01:09:47.636Z,1020.28
2018-02-05T01:10:13.756Z,1020.31
2018-02-05T01:10:39.866Z,1020.32
2018-02-05T01:11:05.978Z,1020.34
2018-02-05T01:11:32.093Z,1020.37
2018-02-05T01:11:58.204Z,1020.38
2018-02-05T01:12:24.318Z,1020.36
2018-02-05T01:12:50.434Z,1020.41
2018-02-05T01:13:16.568Z,1020.36
2018-02-05T01:13:42.678Z,1020.38
2018-02-05T01:14:08.792Z,1020.39
2018-02-05T01:14:34.909Z,1020.35
2018-02-05T01:15:01.028Z,1020.35
2018-02-05T01:15:27.168Z,1020.35
2018-02-05T01:15:53.277Z,1020.38
2018-02-05T01:16:19.414Z,1020.37
2018-02-05T01:16:45.524Z,1020.37
2018-02-05T01:17:11.641Z,1020.36
2018-02-05T01:17:37.754Z,1020.38
2018-02-05T01:18:03.867Z,1020.39
2018-02-05T01:18:29.991Z,1020.38
2018-02-05T01:18:56.102Z,1020.37
2018-02-05T01:19:22.242Z,1020.4
2018-02-05T01:19:48.357Z,1020.42
2018-02-05T01:20:14.476Z,1020.4
2018-02-05T01:20:40.607Z,1020.42
2018-02-05T01:21:06.714Z,1020.42
2018-02-05T01:21:32.832Z,1020.44
2018-02-05T01:21:58.950Z,1020.45
2018-02-05T01:22:25.061Z,1020.41
2018-02-05T01:22:51.179Z,1020.43
2018-02-05T01:23:17.289Z,1020.41
2018-02-05T01:23:43.405Z,1020.43
2018-02-05T01:24:09.521Z,1020.43
2018-02-05T01:24:35.630Z,1020.45
2018-02-05T01:25:01.746Z,1020.49
2018-02-05T01:25:27.860Z,1020.46
2018-02-05T01:25:53.978Z,1020.47
2018-02-05T01:26:20.086Z,1020.48
2018-02-05T01:26:46.204Z,1020.44
2018-02-05T01:27:12.314Z,1020.4
2018-02-05T01:27:38.431Z,1020.42
2018-02-05T01:28:04.550Z,1020.43
2018-02-05T01:28:30.659Z,1020.46
2018-02-05T01:28:56.777Z,1020.45
2018-02-05T01:29:22.886Z,1020.5
2018-02-05T01:29:49.000Z,1020.47
2018-02-05T01:30:15.118Z,1020.45
2018-02-05T01:30:41.225Z,1020.44
2018-02-05T01:31:07.343Z,1020.44
2018-02-05T01:31:33.462Z,1020.46
2018-02-05T01:31:59.571Z,1020.47
2018-02-05T01:32:25.694Z,1020.44
2018-02-05T01:32:51.822Z,1020.5
2018-02-05T01:33:17.943Z,1020.47
2018-02-05T01:33:44.058Z,1020.47
2018-02-05T01:34:10.174Z,1020.48
2018-02-05T01:34:36.285Z,1020.44
2018-02-05T01:35:02.394Z,1020.45
2018-02-05T01:35:28.512Z,1020.45
2018-02-05T01:35:54.629Z,1020.44
2018-02-05T01:36:20.763Z,1020.45
2018-02-05T01:36:46.872Z,1020.43
2018-02-05T01:37:13.012Z,1020.45
2018-02-05T01:37:39.122Z,1020.47
2018-02-05T01:38:05.258Z,1020.43
2018-02-05T01:38:31.367Z,1020.44
2018-02-05T01:38:57.480Z,1020.44
2018-02-05T01:39:23.604Z,1020.46
2018-02-05T01:39:49.714Z,1020.45
2018-02-05T01:40:15.836Z,1020.45
2018-02-05T01:40:41.950Z,1020.45
2018-02-05T01:41:08.078Z,1020.49
2018-02-05T01:41:34.221Z,1020.45
2018-02-05T01:42:00.325Z,1020.46
2018-02-05T01:42:26.446Z,1020.49
2018-02-05T01:42:52.561Z,1020.44
2018-02-05T01:43:18.674Z,1020.46
2018-02-05T01:43:44.784Z,1020.48
2018-02-05T01:44:10.903Z,1020.45
2018-02-05T01:44:37.013Z,1020.45
2018-02-05T01:45:03.150Z,1020.46
2018-02-05T01:45:29.265Z,1020.44
2018-02-05T01:45:55.377Z,1020.42
2018-02-05T01:46:21.493Z,1020.43
2018-02-05T01:46:47.609Z,1020.39
2018-02-05T01:47:13.725Z,1020.39
2018-02-05T01:47:39.835Z,1020.44
2018-02-05T01:48:05.956Z,1020.39
2018-02-05T01:48:32.067Z,1020.45
2018-02-05T01:48:58.185Z,1020.44
2018-02-05T01:49:24.295Z,1020.41
2018-02-05T01:49:50.408Z,1020.46
2018-02-05T01:50:16.526Z,1020.4
2018-02-05T01:50:42.636Z,1020.41
2018-02-05T01:51:08.755Z,1020.42
2018-02-05T01:51:34.864Z,1020.4
2018-02-05T01:52:00.979Z,1020.43
2018-02-05T01:52:27.098Z,1020.43
2018-02-05T01:52:53.209Z,1020.42
2018-02-05T01:53:19.319Z,1020.45
2018-02-05T01:53:45.436Z,1020.48
2018-02-05T01:54:11.552Z,1020.4
2018-02-05T01:54:37.663Z,1020.47
2018-02-05T01:55:03.779Z,1020.49
2018-02-05T01:55:29.892Z,1020.46
2018-02-05T01:55:56.021Z,1020.46
2018-02-05T01:56:22.140Z,1020.44
2018-02-05T01:56:48.258Z,1020.45
2018-02-05T01:57:14.366Z,1020.41
2018-02-05T01:57:40.481Z,1020.4
2018-02-05T01:58:06.601Z,1020.47
2018-02-05T01:58:32.715Z,1020.44
2018-02-05T01:58:59.430Z,1020.38
2018-02-05T01:59:25.542Z,1020.39
2018-02-05T01:59:51.660Z,1020.41
2018-02-05T02:00:17.770Z,1020.37
2018-02-05T02:00:43.928Z,1020.38
2018-02-05T02:01:10.045Z,1020.41
2018-02-05T02:01:36.155Z,1020.44
2018-02-05T02:02:02.272Z,1020.47
2018-02-05T02:02:28.405Z,1020.45
2018-02-05T02:02:54.525Z,1020.46
2018-02-05T02:03:20.638Z,1020.51
2018-02-05T02:03:46.751Z,1020.49
2018-02-05T02:04:12.865Z,1020.51
2018-02-05T02:04:38.980Z,1020.47
2018-02-05T02:05:05.088Z,1020.47
2018-02-05T02:05:31.201Z,1020.46
2018-02-05T02:05:57.312Z,1020.5
2018-02-05T02:06:23.431Z,1020.45
2018-02-05T02:06:49.542Z,1020.47
2018-02-05T02:07:15.649Z,1020.48
2018-02-05T02:07:41.768Z,1020.47
2018-02-05T02:08:07.877Z,1020.44
2018-02-05T02:08:33.991Z,1020.49
2018-02-05T02:09:00.100Z,1020.43
2018-02-05T02:09:26.218Z,1020.46
2018-02-05T02:09:52.328Z,1020.47
2018-02-05T02:10:18.447Z,1020.51
2018-02-05T02:10:44.563Z,1020.46
2018-02-05T02:11:10.672Z,1020.52
2018-02-05T02:11:36.783Z,1020.48
2018-02-05T02:12:02.900Z,1020.49
2018-02-05T02:12:29.010Z,1020.49
2018-02-05T02:12:55.124Z,1020.51
2018-02-05T02:13:21.236Z,1020.48
2018-02-05T02:13:47.372Z,1020.44
2018-02-05T02:14:13.509Z,1020.46
2018-02-05T02:14:39.636Z,1020.47
2018-02-05T02:15:05.746Z,1020.45
2018-02-05T02:15:31.864Z,1020.51
2018-02-05T02:15:57.980Z,1020.48
2018-02-05T02:16:24.087Z,1020.52
2018-02-05T02:16:50.206Z,1020.49
2018-02-05T02:17:16.320Z,1020.48
2018-02-05T02:17:42.427Z,1020.46
2018-02-05T02:18:08.536Z,1020.46
2018-02-05T02:18:34.656Z,1020.47
2018-02-05T02:19:00.766Z,1020.46
2018-02-05T02:19:26.899Z,1020.46
2018-02-05T02:19:53.011Z,1020.48
2018-02-05T02:20:19.127Z,1020.48
2018-02-05T02:20:45.236Z,1020.51
2018-02-05T02:21:11.353Z,1020.5
2018-02-05T02:21:37.461Z,1020.5
2018-02-05T02:22:03.595Z,1020.49
2018-02-05T02:22:29.716Z,1020.46
2018-02-05T02:22:55.832Z,1020.5
2018-02-05T02:23:21.938Z,1020.51
2018-02-05T02:23:48.048Z,1020.49
2018-02-05T02:24:14.167Z,1020.47
2018-02-05T02:24:40.276Z,1020.51
2018-02-05T02:25:06.389Z,1020.51
2018-02-05T02:25:32.504Z,1020.5
2018-02-05T02:25:58.703Z,1020.47
2018-02-05T02:26:24.753Z,1020.46
2018-02-05T02:26:50.866Z,1020.48
2018-02-05T02:27:16.975Z,1020.47
2018-02-05T02:27:43.097Z,1020.49
2018-02-05T02:28:09.209Z,1020.48
2018-02-05T02:28:35.324Z,1020.5
2018-02-05T02:29:01.434Z,1020.49
2018-02-05T02:29:27.565Z,1020.47
2018-02-05T02:29:53.706Z,1020.46
2018-02-05T02:30:19.822Z,1020.47
2018-02-05T02:30:45.932Z,1020.49
2018-02-05T02:31:12.047Z,1020.49
2018-02-05T02:31:38.160Z,1020.47
2018-02-05T02:32:04.270Z,1020.5
2018-02-05T02:32:30.409Z,1020.5
2018-02-05T02:32:56.561Z,1020.5
2018-02-05T02:33:22.668Z,1020.51
2018-02-05T02:33:48.784Z,1020.46
2018-02-05T02:34:14.890Z,1020.5
2018-02-05T02:34:41.008Z,1020.5
2018-02-05T02:35:07.123Z,1020.49
2018-02-05T02:35:33.242Z,1020.44
2018-02-05T02:35:59.355Z,1020.44
2018-02-05T02:36:25.464Z,1020.45
2018-02-05T02:36:51.579Z,1020.44
2018-02-05T02:37:17.711Z,1020.44
2018-02-05T02:37:43.827Z,1020.48
2018-02-05T02:38:09.933Z,1020.42
2018-02-05T02:38:36.056Z,1020.45
2018-02-05T02:39:02.164Z,1020.45
2018-02-05T02:39:28.285Z,1020.45
2018-02-05T02:39:54.394Z,1020.38
2018-02-05T02:40:20.534Z,1020.47
2018-02-05T02:40:46.642Z,1020.45
2018-02-05T02:41:12.749Z,1020.43
2018-02-05T02:41:38.868Z,1020.46
2018-02-05T02:42:04.976Z,1020.46
2018-02-05T02:42:31.090Z,1020.43
2018-02-05T02:42:57.208Z,1020.43
2018-02-05T02:43:23.316Z,1020.44
2018-02-05T02:43:49.450Z,1020.47
2018-02-05T02:44:15.566Z,1020.49
2018-02-05T02:44:41.685Z,1020.48
2018-02-05T02:45:07.799Z,1020.49
2018-02-05T02:45:33.912Z,1020.51
2018-02-05T02:46:00.038Z,1020.51
2018-02-05T02:46:26.159Z,1020.48
2018-02-05T02:46:52.275Z,1020.49
2018-02-05T02:47:18.392Z,1020.55
2018-02-05T02:47:44.525Z,1020.51
2018-02-05T02:48:10.636Z,1020.58
2018-02-05T02:48:36.747Z,1020.54
2018-02-05T02:49:02.861Z,1020.58
2018-02-05T02:49:28.972Z,1020.59
2018-02-05T02:49:55.090Z,1020.57
2018-02-05T02:50:21.223Z,1020.6
2018-02-05T02:50:47.344Z,1020.62
2018-02-05T02:51:13.451Z,1020.59
2018-02-05T02:51:39.566Z,1020.58
2018-02-05T02:52:05.674Z,1020.62
2018-02-05T02:52:31.793Z,1020.6
2018-02-05T02:52:57.901Z,1020.63
2018-02-05T02:53:24.015Z,1020.63
2018-02-05T02:53:50.127Z,1020.6
2018-02-05T02:54:16.236Z,1020.62
2018-02-05T02:54:42.355Z,1020.64
2018-02-05T02:55:08.478Z,1020.62
2018-02-05T02:55:34.586Z,1020.7
2018-02-05T02:56:00.699Z,1020.62
2018-02-05T02:56:26.816Z,1020.68
2018-02-05T02:56:52.926Z,1020.63
2018-02-05T02:57:19.044Z,1020.65
2018-02-05T02:57:45.157Z,1020.65
2018-02-05T02:58:11.271Z,1020.64
2018-02-05T02:58:37.385Z,1020.64
2018-02-05T02:59:03.493Z,1020.66
2018-02-05T02:59:29.606Z,1020.67
2018-02-05T02:59:55.715Z,1020.66
2018-02-05T03:00:21.825Z,1020.65
2018-02-05T03:00:47.946Z,1020.64
2018-02-05T03:01:14.052Z,1020.62
2018-02-05T03:01:40.169Z,1020.64
2018-02-05T03:02:06.286Z,1020.63
2018-02-05T03:02:32.417Z,1020.62
2018-02-05T03:02:58.531Z,1020.65
2018-02-05T03:03:24.639Z,1020.63
2018-02-05T03:03:50.756Z,1020.61
2018-02-05T03:04:16.865Z,1020.64
2018-02-05T03:04:42.979Z,1020.66
2018-02-05T03:05:09.090Z,1020.63
2018-02-05T03:05:35.200Z,1020.69
2018-02-05T03:06:01.314Z,1020.67
2018-02-05T03:06:27.430Z,1020.68
2018-02-05T03:06:53.539Z,1020.67
2018-02-05T03:07:19.654Z,1020.7
2018-02-05T03:07:45.762Z,1020.69
2018-02-05T03:08:11.875Z,1020.7
2018-02-05T03:08:37.992Z,1020.69
2018-02-05T03:09:04.104Z,1020.72
2018-02-05T03:09:30.220Z,1020.73
2018-02-05T03:09:56.335Z,1020.72
2018-02-05T03:10:22.441Z,1020.72
2018-02-05T03:10:48.558Z,1020.72
2018-02-05T03:11:14.667Z,1020.73
2018-02-05T03:11:40.777Z,1020.71
2018-02-05T03:12:06.895Z,1020.73
2018-02-05T03:12:33.003Z,1020.75
2018-02-05T03:12:59.125Z,1020.75
2018-02-05T03:13:25.247Z,1020.78
2018-02-05T03:13:51.353Z,1020.78
2018-02-05T03:14:17.518Z,1020.81
2018-02-05T03:14:43.636Z,1020.83
2018-02-05T03:15:09.749Z,1020.83
2018-02-05T03:15:35.863Z,1020.82
2018-02-05T03:16:01.975Z,1020.82
2018-02-05T03:16:28.092Z,1020.84
2018-02-05T03:16:54.203Z,1020.79
2018-02-05T03:17:20.320Z,1020.8
2018-02-05T03:17:46.436Z,1020.82
2018-02-05T03:18:12.540Z,1020.81
2018-02-05T03:18:38.654Z,1020.8
2018-02-05T03:19:04.768Z,1020.81
2018-02-05T03:19:30.875Z,1020.78
2018-02-05T03:19:57.004Z,1020.73
2018-02-05T03:20:23.122Z,1020.76
2018-02-05T03:20:49.246Z,1020.78
2018-02-05T03:21:15.379Z,1020.79
2018-02-05T03:21:41.489Z,1020.79
2018-02-05T03:22:07.601Z,1020.79
2018-02-05T03:22:33.712Z,1020.8
2018-02-05T03:22:59.830Z,1020.78
2018-02-05T03:23:25.942Z,1020.79
2018-02-05T03:23:52.055Z,1020.77
2018-02-05T03:24:18.165Z,1020.78
2018-02-05T03:24:44.302Z,1020.78
2018-02-05T03:25:10.413Z,1020.73
2018-02-05T03:25:36.523Z,1020.79
2018-02-05T03:26:02.665Z,1020.77
2018-02-05T03:26:28.768Z,1020.81
2018-02-05T03:26:54.883Z,1020.81
2018-02-05T03:27:20.997Z,1020.83
2018-02-05T03:27:47.114Z,1020.81
2018-02-05T03:28:13.231Z,1020.79
2018-02-05T03:28:39.343Z,1020.77
2018-02-05T03:29:05.458Z,1020.79
2018-02-05T03:29:31.567Z,1020.78
2018-02-05T03:29:57.675Z,1020.82
2018-02-05T03:30:23.790Z,1020.8
2018-02-05T03:30:49.945Z,1020.83
2018-02-05T03:31:16.056Z,1020.8
2018-02-05T03:31:42.167Z,1020.84
2018-02-05T03:32:08.287Z,1020.81
2018-02-05T03:32:34.399Z,1020.81
2018-02-05T03:33:00.513Z,1020.85
2018-02-05T03:33:26.626Z,1020.84
2018-02-05T03:33:52.735Z,1020.86
2018-02-05T03:34:18.853Z,1020.83
2018-02-05T03:34:44.965Z,1020.86
2018-02-05T03:35:11.082Z,1020.91
2018-02-05T03:35:37.189Z,1020.82
2018-02-05T03:36:03.307Z,1020.83
2018-02-05T03:36:29.411Z,1020.85
2018-02-05T03:36:55.527Z,1020.87
2018-02-05T03:37:21.631Z,1020.89
2018-02-05T03:37:47.743Z,1020.86
2018-02-05T03:38:13.861Z,1020.87
2018-02-05T03:38:39.972Z,1020.9
2018-02-05T03:39:06.096Z,1020.89
2018-02-05T03:39:32.207Z,1020.9
2018-02-05T03:39:58.327Z,1020.93
2018-02-05T03:40:24.448Z,1020.9
2018-02-05T03:40:50.556Z,1020.9
2018-02-05T03:41:16.664Z,1020.93
2018-02-05T03:41:42.782Z,1020.88
2018-02-05T03:42:08.917Z,1020.95
2018-02-05T03:42:35.027Z,1020.97
2018-02-05T03:43:01.138Z,1020.97
2018-02-05T03:43:27.253Z,1020.96
2018-02-05T03:43:53.372Z,1020.97
2018-02-05T03:44:19.479Z,1020.9
2018-02-05T03:44:45.586Z,1020.94
2018-02-05T03:45:11.704Z,1020.98
2018-02-05T03:45:37.817Z,1020.97
2018-02-05T03:46:03.937Z,1021
2018-02-05T03:46:30.052Z,1021.03
2018-02-05T03:46:56.166Z,1021.03
2018-02-05T03:47:22.280Z,1021.02
2018-02-05T03:47:48.386Z,1021.01
2018-02-05T03:48:14.508Z,1021.04
2018-02-05T03:48:40.613Z,1021.03
2018-02-05T03:49:06.725Z,1021.03
2018-02-05T03:49:32.861Z,1021.05
2018-02-05T03:49:58.976Z,1021.06
2018-02-05T03:50:25.087Z,1021.03
2018-02-05T03:50:51.199Z,1021.08
2018-02-05T03:51:17.312Z,1021.09
2018-02-05T03:51:43.420Z,1021.06
2018-02-05T03:52:09.543Z,1021.05
2018-02-05T03:52:35.656Z,1021.06
2018-02-05T03:53:01.763Z,1021.11
2018-02-05T03:53:27.883Z,1021.08
2018-02-05T03:53:53.994Z,1021.09
2018-02-05T03:54:20.102Z,1021.12
2018-02-05T03:54:46.218Z,1021.12
2018-02-05T03:55:12.340Z,1021.14
2018-02-05T03:55:38.450Z,1021.11
2018-02-05T03:56:04.567Z,1021.14
2018-02-05T03:56:30.677Z,1021.14
2018-02-05T03:56:56.785Z,1021.14
2018-02-05T03:57:22.898Z,1021.14
2018-02-05T03:57:49.017Z,1021.13
2018-02-05T03:58:15.135Z,1021.1
2018-02-05T03:58:41.245Z,1021.14
2018-02-05T03:59:07.362Z,1021.12
2018-02-05T03:59:33.470Z,1021.17
2018-02-05T03:59:59.585Z,1021.16
2018-02-05T04:00:25.700Z,1021.17
2018-02-05T04:00:51.815Z,1021.13
2018-02-05T04:01:17.926Z,1021.11
2018-02-05T04:01:44.036Z,1021.14
2018-02-05T04:02:10.148Z,1021.12
2018-02-05T04:02:36.263Z,1021.09
2018-02-05T04:03:02.383Z,1021.11
2018-02-05T04:03:28.492Z,1021.13
2018-02-05T04:03:54.607Z,1021.13
2018-02-05T04:04:20.720Z,1021.17
2018-02-05T04:04:46.847Z,1021.15
2018-02-05T04:05:12.970Z,1021.14
2018-02-05T04:05:39.105Z,1021.2
2018-02-05T04:06:05.214Z,1021.2
2018-02-05T04:06:31.329Z,1021.19
2018-02-05T04:06:57.435Z,1021.18
2018-02-05T04:07:23.546Z,1021.24
2018-02-05T04:07:49.666Z,1021.14
2018-02-05T04:08:15.776Z,1021.14
2018-02-05T04:08:41.892Z,1021.14
2018-02-05T04:09:08.003Z,1021.2
2018-02-05T04:09:34.118Z,1021.17
2018-02-05T04:10:00.232Z,1021.12
2018-02-05T04:10:26.340Z,1021.18
2018-02-05T04:10:52.459Z,1021.16
2018-02-05T04:11:18.587Z,1021.14
2018-02-05T04:11:44.716Z,1021.23
2018-02-05T04:12:10.832Z,1021.21
2018-02-05T04:12:36.940Z,1021.2
2018-02-05T04:13:03.081Z,1021.18
2018-02-05T04:13:29.193Z,1021.2
2018-02-05T04:13:55.323Z,1021.2
2018-02-05T04:14:21.456Z,1021.18
2018-02-05T04:14:47.568Z,1021.2
2018-02-05T04:15:13.680Z,1021.19
2018-02-05T04:15:39.795Z,1021.23
2018-02-05T04:16:05.905Z,1021.2
2018-02-05T04:16:32.023Z,1021.17
2018-02-05T04:16:58.133Z,1021.2
2018-02-05T04:17:24.252Z,1021.2
2018-02-05T04:17:50.367Z,1021.21
2018-02-05T04:18:16.479Z,1021.18
2018-02-05T04:18:42.594Z,1021.23
2018-02-05T04:19:08.705Z,1021.23
2018-02-05T04:19:34.818Z,1021.25
2018-02-05T04:20:00.928Z,1021.19
2018-02-05T04:20:27.042Z,1021.22
2018-02-05T04:20:53.153Z,1021.22
2018-02-05T04:21:19.264Z,1021.22
2018-02-05T04:21:45.385Z,1021.24
2018-02-05T04:22:11.501Z,1021.24
2018-02-05T04:22:37.605Z,1021.24
2018-02-05T04:23:03.724Z,1021.25
2018-02-05T04:23:29.837Z,1021.21
2018-02-05T04:23:55.965Z,1021.21
2018-02-05T04:24:22.080Z,1021.25
2018-02-05T04:24:48.191Z,1021.25
2018-02-05T04:25:14.310Z,1021.22
2018-02-05T04:25:40.421Z,1021.29
2018-02-05T04:26:06.554Z,1021.2
2018-02-05T04:26:32.663Z,1021.27
2018-02-05T04:26:58.780Z,1021.3
2018-02-05T04:27:24.892Z,1021.26
2018-02-05T04:27:51.027Z,1021.27
2018-02-05T04:28:17.141Z,1021.3
2018-02-05T04:28:43.279Z,1021.3
2018-02-05T04:29:09.393Z,1021.3
2018-02-05T04:29:35.506Z,1021.31
2018-02-05T04:30:01.618Z,1021.27
2018-02-05T04:30:27.728Z,1021.29
2018-02-05T04:30:53.835Z,1021.29
2018-02-05T04:31:19.952Z,1021.29
2018-02-05T04:31:46.064Z,1021.3
2018-02-05T04:32:12.187Z,1021.3
2018-02-05T04:32:38.313Z,1021.31
2018-02-05T04:33:04.424Z,1021.33
2018-02-05T04:33:30.535Z,1021.32
2018-02-05T04:33:56.651Z,1021.32
2018-02-05T04:34:22.760Z,1021.36
2018-02-05T04:34:48.878Z,1021.35
2018-02-05T04:35:14.992Z,1021.36
2018-02-05T04:35:41.102Z,1021.37
2018-02-05T04:36:07.212Z,1021.3
2018-02-05T04:36:33.332Z,1021.38
2018-02-05T04:36:59.446Z,1021.35
2018-02-05T04:37:25.556Z,1021.34
2018-02-05T04:37:51.690Z,1021.3
2018-02-05T04:38:17.799Z,1021.3
2018-02-05T04:38:43.909Z,1021.33
2018-02-05T04:39:10.025Z,1021.33
2018-02-05T04:39:36.133Z,1021.36
2018-02-05T04:40:02.251Z,1021.31
2018-02-05T04:40:28.366Z,1021.34
2018-02-05T04:40:54.476Z,1021.35
2018-02-05T04:41:20.615Z,1021.37
2018-02-05T04:41:46.724Z,1021.37
2018-02-05T04:42:12.846Z,1021.37
2018-02-05T04:42:38.958Z,1021.35
2018-02-05T04:43:05.076Z,1021.36
2018-02-05T04:43:31.185Z,1021.37
2018-02-05T04:43:57.292Z,1021.39
2018-02-05T04:44:23.409Z,1021.42
2018-02-05T04:44:49.525Z,1021.4
2018-02-05T04:45:15.632Z,1021.41
2018-02-05T04:45:41.749Z,1021.41
2018-02-05T04:46:07.857Z,1021.39
2018-02-05T04:46:33.993Z,1021.33
2018-02-05T04:47:00.108Z,1021.42
2018-02-05T04:47:26.224Z,1021.39
2018-02-05T04:47:52.335Z,1021.37
2018-02-05T04:48:18.453Z,1021.32
2018-02-05T04:48:44.580Z,1021.4
2018-02-05T04:49:10.704Z,1021.39
2018-02-05T04:49:36.838Z,1021.32
2018-02-05T04:50:02.948Z,1021.39
2018-02-05T04:50:29.058Z,1021.39
2018-02-05T04:50:55.173Z,1021.37
2018-02-05T04:51:21.290Z,1021.4
2018-02-05T04:51:47.395Z,1021.38
2018-02-05T04:52:13.514Z,1021.39
2018-02-05T04:52:39.625Z,1021.38
2018-02-05T04:53:05.742Z,1021.4
2018-02-05T04:53:31.851Z,1021.4
2018-02-05T04:53:57.968Z,1021.42
2018-02-05T04:54:24.082Z,1021.39
2018-02-05T04:54:50.192Z,1021.42
2018-02-05T04:55:16.309Z,1021.39
2018-02-05T04:55:42.421Z,1021.46
2018-02-05T04:56:08.542Z,1021.44
2018-02-05T04:56:34.644Z,1021.42
2018-02-05T04:57:00.759Z,1021.42
2018-02-05T04:57:26.872Z,1021.4
2018-02-05T04:57:52.982Z,1021.43
2018-02-05T04:58:19.103Z,1021.45
2018-02-05T04:58:45.213Z,1021.45
2018-02-05T04:59:11.349Z,1021.39
2018-02-05T04:59:37.457Z,1021.42
2018-02-05T05:00:03.576Z,1021.41
2018-02-05T05:00:29.686Z,1021.4
2018-02-05T05:00:55.803Z,1021.41
2018-02-05T05:01:21.922Z,1021.42
2018-02-05T05:01:48.031Z,1021.42
2018-02-05T05:02:14.143Z,1021.37
2018-02-05T05:02:40.258Z,1021.39
2018-02-05T05:03:06.373Z,1021.41
2018-02-05T05:03:32.490Z,1021.4
2018-02-05T05:03:58.622Z,1021.39
2018-02-05T05:04:24.731Z,1021.39
2018-02-05T05:04:50.844Z,1021.4
2018-02-05T05:05:16.955Z,1021.44
2018-02-05T05:05:43.064Z,1021.44
2018-02-05T05:06:09.182Z,1021.41
2018-02-05T05:06:35.291Z,1021.43
2018-02-05T05:07:01.406Z,1021.43
2018-02-05T05:07:27.518Z,1021.44
2018-02-05T05:07:53.629Z,1021.43
2018-02-05T05:08:19.746Z,1021.41
2018-02-05T05:08:45.865Z,1021.43
2018-02-05T05:09:11.976Z,1021.41
2018-02-05T05:09:38.093Z,1021.4
2018-02-05T05:10:04.208Z,1021.41
2018-02-05T05:10:30.318Z,1021.39
2018-02-05T05:10:56.427Z,1021.41
2018-02-05T05:11:22.548Z,1021.43
2018-02-05T05:11:48.657Z,1021.38
2018-02-05T05:12:14.797Z,1021.42
2018-02-05T05:12:40.913Z,1021.4
2018-02-05T05:13:07.049Z,1021.41
2018-02-05T05:13:33.164Z,1021.38
2018-02-05T05:13:59.273Z,1021.38
2018-02-05T05:14:25.380Z,1021.39
2018-02-05T05:14:51.494Z,1021.4
2018-02-05T05:15:17.609Z,1021.4
2018-02-05T05:15:43.721Z,1021.37
2018-02-05T05:16:09.834Z,1021.4
2018-02-05T05:16:35.951Z,1021.41
2018-02-05T05:17:02.066Z,1021.37